Time;durP1;ratioP1;P1;durP2;ratioP2;P2;SDS_P1;SDS_P2;PMS_P1;PMS_P2;Temp;Humidity;BMP_temperature;BMP_pressure;BME280_temperature;BME280_humidity;BME280_pressure;Samples;Min_cycle;Max_cycle;Signal;HPM_P1;HPM_P2
2021/07/17 00:01:17;;;;;;;5.55;3.88;;;;;;;;;;5035857;28;20127;-60
2021/07/17 00:03:45;;;;;;;5.95;4.13;;;;;;;;;;5043603;28;20764;-61
2021/07/17 00:06:15;;;;;;;5.45;4.60;;;;;;;;;;5013640;28;20121;-60
2021/07/17 00:08:43;;;;;;;5.82;3.88;;;;;;;;;;5029278;28;20048;-60
2021/07/17 00:11:12;;;;;;;7.93;4.18;;;;;;;;;;5029138;28;20092;-61
2021/07/17 00:13:41;;;;;;;7.25;4.25;;;;;;;;;;5028795;28;20079;-60
2021/07/17 00:16:09;;;;;;;8.15;4.50;;;;;;;;;;5029134;28;20049;-60
2021/07/17 00:18:37;;;;;;;6.28;4.25;;;;;;;;;;5029117;28;20053;-60
2021/07/17 00:21:06;;;;;;;6.07;4.32;;;;;;;;;;5029114;28;20554;-61
2021/07/17 00:23:35;;;;;;;4.13;3.67;;;;;;;;;;5029451;28;20080;-60
2021/07/17 00:26:03;;;;;;;6.55;4.55;;;;;;;;;;5028926;28;20128;-61
2021/07/17 00:28:33;;;;;;;6.30;4.65;;;;;;;;;;5028705;28;20182;-61
2021/07/17 00:31:02;;;;;;;6.93;4.55;;;;;;;;;;5030724;28;20057;-62
2021/07/17 00:33:30;;;;;;;5.32;4.30;;;;;;;;;;5028432;28;20492;-61
2021/07/17 00:35:59;;;;;;;5.40;4.35;;;;;;;;;;5030475;28;20057;-62
2021/07/17 00:38:27;;;;;;;6.15;4.55;;;;;;;;;;5030121;28;20049;-61
2021/07/17 00:40:55;;;;;;;5.03;4.45;;;;;;;;;;5029577;28;20141;-61
2021/07/17 00:43:23;;;;;;;6.50;4.35;;;;;;;;;;5029127;28;20132;-60
2021/07/17 00:45:53;;;;;;;6.82;4.88;;;;;;;;;;5026353;28;20072;-60
2021/07/17 00:48:23;;;;;;;6.72;5.00;;;;;;;;;;5028562;28;20124;-61
2021/07/17 00:50:51;;;;;;;6.25;4.80;;;;;;;;;;5029721;28;20147;-60
2021/07/17 00:53:19;;;;;;;6.05;4.63;;;;;;;;;;5032590;28;20049;-61
2021/07/17 00:55:49;;;;;;;6.35;4.63;;;;;;;;;;5027115;28;20053;-60
2021/07/17 00:58:18;;;;;;;6.35;5.18;;;;;;;;;;5032959;28;20345;-60
2021/07/17 01:00:47;;;;;;;9.38;4.88;;;;;;;;;;5033650;28;20053;-61
2021/07/17 01:03:18;;;;;;;6.55;4.90;;;;;;;;;;5046723;23;20109;-72
2021/07/17 01:05:47;;;;;;;9.20;5.32;;;;;;;;;;5049751;28;20041;-68
2021/07/17 01:08:15;;;;;;;7.68;5.50;;;;;;;;;;5052341;28;20545;-67
2021/07/17 01:10:44;;;;;;;6.68;5.38;;;;;;;;;;5052486;28;20425;-68
2021/07/17 01:13:12;;;;;;;6.07;5.43;;;;;;;;;;5051531;28;20474;-68
2021/07/17 01:15:41;;;;;;;7.05;5.30;;;;;;;;;;5051675;28;20492;-67
2021/07/17 01:18:10;;;;;;;7.55;5.97;;;;;;;;;;5051845;28;20131;-69
2021/07/17 01:20:40;;;;;;;7.07;5.90;;;;;;;;;;5052247;28;20055;-69
2021/07/17 01:23:10;;;;;;;7.70;5.97;;;;;;;;;;5052021;28;20143;-68
2021/07/17 01:25:38;;;;;;;10.13;6.63;;;;;;;;;;5051110;28;20377;-74
2021/07/17 01:28:07;;;;;;;9.70;6.13;;;;;;;;;;5046569;28;20055;-68
2021/07/17 01:30:37;;;;;;;9.55;6.32;;;;;;;;;;5052216;28;20148;-68
2021/07/17 01:33:06;;;;;;;8.32;6.35;;;;;;;;;;5051341;28;20055;-70
2021/07/17 01:35:35;;;;;;;7.47;6.25;;;;;;;;;;5050748;28;20116;-69
2021/07/17 01:38:03;;;;;;;6.75;5.68;;;;;;;;;;5051637;28;20164;-67
2021/07/17 01:40:34;;;;;;;10.65;6.47;;;;;;;;;;5051390;28;20049;-68
2021/07/17 01:43:03;;;;;;;8.98;6.45;;;;;;;;;;5051778;28;20067;-70
2021/07/17 01:45:35;;;;;;;8.13;6.15;;;;;;;;;;5046619;28;20057;-68
2021/07/17 01:48:03;;;;;;;8.38;5.93;;;;;;;;;;5051742;28;20084;-69
2021/07/17 01:50:32;;;;;;;8.75;6.65;;;;;;;;;;5052265;28;20131;-70
2021/07/17 01:53:01;;;;;;;7.47;6.25;;;;;;;;;;5051835;28;20110;-70
2021/07/17 01:55:29;;;;;;;11.18;6.78;;;;;;;;;;5050073;28;20072;-70
2021/07/17 01:57:59;;;;;;;8.23;6.40;;;;;;;;;;5051806;28;20396;-68
2021/07/17 02:00:28;;;;;;;10.50;6.80;;;;;;;;;;5051749;28;20060;-68
2021/07/17 02:02:57;;;;;;;9.73;7.00;;;;;;;;;;5051269;28;20041;-68
2021/07/17 02:05:26;;;;;;;9.90;6.30;;;;;;;;;;5049849;28;20118;-71
2021/07/17 02:07:54;;;;;;;8.15;6.68;;;;;;;;;;5051447;28;20048;-72
2021/07/17 02:10:24;;;;;;;8.93;6.65;;;;;;;;;;5051449;28;20051;-68
2021/07/17 02:13:04;;;;;;;9.77;6.60;;;;;;;;;;5050513;28;20415;-68
2021/07/17 02:15:34;;;;;;;9.50;6.40;;;;;;;;;;5051545;28;20127;-69
2021/07/17 02:18:04;;;;;;;11.57;6.55;;;;;;;;;;5051438;28;20045;-69
2021/07/17 02:20:32;;;;;;;7.78;6.88;;;;;;;;;;5050934;28;20063;-68
2021/07/17 02:23:01;;;;;;;9.95;7.57;;;;;;;;;;5051187;28;20053;-69
2021/07/17 02:25:29;;;;;;;10.18;7.38;;;;;;;;;;5049241;28;20419;-69
2021/07/17 02:27:57;;;;;;;10.35;7.28;;;;;;;;;;5050508;28;20139;-69
2021/07/17 02:30:27;;;;;;;10.18;8.00;;;;;;;;;;5050704;28;20073;-68
2021/07/17 02:32:55;;;;;;;10.40;7.05;;;;;;;;;;5032212;28;20144;-68
2021/07/17 02:35:24;;;;;;;10.68;7.45;;;;;;;;;;5049346;28;20041;-71
2021/07/17 02:37:52;;;;;;;10.52;8.25;;;;;;;;;;5050398;28;20072;-70
2021/07/17 02:40:20;;;;;;;15.43;7.10;;;;;;;;;;5050679;28;20457;-69
2021/07/17 02:42:48;;;;;;;9.48;7.28;;;;;;;;;;5051584;28;20063;-69
2021/07/17 02:45:17;;;;;;;12.32;7.75;;;;;;;;;;5048822;28;20159;-70
2021/07/17 02:47:47;;;;;;;10.60;7.93;;;;;;;;;;5049850;28;20076;-75
2021/07/17 02:50:15;;;;;;;10.43;6.85;;;;;;;;;;5045954;28;20107;-69
2021/07/17 02:52:44;;;;;;;11.13;8.00;;;;;;;;;;5051015;28;20242;-69
2021/07/17 02:55:12;;;;;;;9.30;7.38;;;;;;;;;;5049688;28;20541;-68
2021/07/17 02:57:41;;;;;;;11.77;7.55;;;;;;;;;;5041878;28;20049;-69
2021/07/17 03:00:10;;;;;;;9.57;7.68;;;;;;;;;;5050319;28;20133;-72
2021/07/17 03:02:39;;;;;;;10.85;7.50;;;;;;;;;;5050301;28;20411;-69
2021/07/17 03:05:09;;;;;;;9.57;7.75;;;;;;;;;;5049995;28;20045;-69
2021/07/17 03:07:37;;;;;;;9.38;7.43;;;;;;;;;;5051433;28;20128;-69
2021/07/17 03:10:06;;;;;;;11.00;7.95;;;;;;;;;;5050157;28;20131;-70
2021/07/17 03:12:34;;;;;;;9.05;7.38;;;;;;;;;;5048297;28;20055;-72
2021/07/17 03:15:03;;;;;;;8.57;7.00;;;;;;;;;;5047881;28;20235;-70
2021/07/17 03:17:31;;;;;;;12.38;7.55;;;;;;;;;;5050289;28;20072;-68
2021/07/17 03:20:00;;;;;;;9.52;7.40;;;;;;;;;;5050201;28;20131;-69
2021/07/17 03:22:29;;;;;;;10.50;7.43;;;;;;;;;;5049750;28;20522;-71
2021/07/17 03:24:57;;;;;;;11.63;7.50;;;;;;;;;;5048673;28;20076;-68
2021/07/17 03:27:26;;;;;;;10.75;7.97;;;;;;;;;;5047792;28;20083;-70
2021/07/17 03:29:54;;;;;;;10.50;7.63;;;;;;;;;;5037633;28;20081;-71
2021/07/17 03:32:25;;;;;;;10.57;8.13;;;;;;;;;;5050391;28;20052;-70
2021/07/17 03:34:53;;;;;;;14.52;8.35;;;;;;;;;;5049612;28;20049;-72
2021/07/17 03:37:22;;;;;;;9.52;8.00;;;;;;;;;;5017836;28;20063;-68
2021/07/17 03:39:51;;;;;;;7.96;6.80;;;;;;;;;;311503;28;10022725;-69
2021/07/17 03:42:19;;;;;;;12.75;8.43;;;;;;;;;;5030987;28;20164;-68
2021/07/17 03:44:48;;;;;;;11.45;7.47;;;;;;;;;;5041642;28;20053;-68
2021/07/17 03:47:17;;;;;;;12.75;8.38;;;;;;;;;;5047971;28;20837;-70
2021/07/17 03:49:45;;;;;;;9.88;8.38;;;;;;;;;;5045174;28;20510;-68
2021/07/17 03:52:14;;;;;;;12.48;7.93;;;;;;;;;;5042923;28;20151;-71
2021/07/17 03:54:42;;;;;;;11.15;7.55;;;;;;;;;;5046840;28;20464;-68
2021/07/17 03:57:12;;;;;;;10.70;7.95;;;;;;;;;;5047817;28;20136;-68
2021/07/17 03:59:43;;;;;;;10.38;7.93;;;;;;;;;;5050218;28;20055;-68
2021/07/17 04:02:12;;;;;;;11.68;8.52;;;;;;;;;;5048087;28;20128;-68
2021/07/17 04:04:42;;;;;;;13.68;8.18;;;;;;;;;;5048213;28;20114;-68
2021/07/17 04:07:10;;;;;;;12.85;8.23;;;;;;;;;;5048999;28;20099;-68
2021/07/17 04:09:39;;;;;;;12.30;8.48;;;;;;;;;;5049501;28;20080;-68
2021/07/17 04:12:07;;;;;;;12.15;8.38;;;;;;;;;;5049874;28;20435;-70
2021/07/17 04:14:37;;;;;;;13.20;8.80;;;;;;;;;;5048432;28;20572;-68
2021/07/17 04:17:05;;;;;;;12.13;9.25;;;;;;;;;;5049740;28;20045;-68
2021/07/17 04:19:33;;;;;;;9.15;7.82;;;;;;;;;;5048655;28;20140;-68
2021/07/17 04:22:02;;;;;;;13.63;8.85;;;;;;;;;;5049368;28;20115;-68
2021/07/17 04:24:31;;;;;;;10.40;8.65;;;;;;;;;;5048815;28;20045;-69
2021/07/17 04:26:59;;;;;;;13.65;9.98;;;;;;;;;;5051889;28;20503;-70
2021/07/17 04:29:27;;;;;;;13.45;9.60;;;;;;;;;;5053499;28;20080;-70
2021/07/17 04:31:57;;;;;;;14.98;9.93;;;;;;;;;;5052595;28;20488;-68
2021/07/17 04:34:27;;;;;;;12.43;9.75;;;;;;;;;;5051381;28;20102;-68
2021/07/17 04:36:56;;;;;;;12.13;9.70;;;;;;;;;;5053537;28;20488;-68
2021/07/17 04:39:24;;;;;;;16.00;10.38;;;;;;;;;;5052595;28;20830;-72
2021/07/17 04:41:53;;;;;;;16.90;10.25;;;;;;;;;;5052853;28;20041;-68
2021/07/17 04:44:22;;;;;;;16.40;11.73;;;;;;;;;;5051778;28;20049;-70
2021/07/17 04:46:50;;;;;;;17.30;12.30;;;;;;;;;;5055011;28;20052;-70
2021/07/17 04:49:20;;;;;;;14.80;11.13;;;;;;;;;;5054053;28;20084;-70
2021/07/17 04:51:48;;;;;;;17.58;12.68;;;;;;;;;;5052687;28;20427;-68
2021/07/17 04:54:16;;;;;;;18.33;12.70;;;;;;;;;;5050837;28;20468;-68
2021/07/17 04:56:45;;;;;;;16.58;12.15;;;;;;;;;;5053119;28;20068;-67
2021/07/17 04:59:13;;;;;;;19.60;12.32;;;;;;;;;;5048825;28;20057;-69
2021/07/17 05:01:41;;;;;;;17.45;11.82;;;;;;;;;;5051527;28;20087;-67
2021/07/17 05:04:11;;;;;;;24.13;13.68;;;;;;;;;;5050276;28;20055;-70
2021/07/17 05:06:41;;;;;;;22.65;14.80;;;;;;;;;;5049141;28;20069;-67
2021/07/17 05:09:09;;;;;;;23.40;15.02;;;;;;;;;;5052628;28;20049;-70
2021/07/17 05:11:39;;;;;;;27.73;15.10;;;;;;;;;;5050039;28;20079;-68
2021/07/17 05:14:07;;;;;;;32.88;17.92;;;;;;;;;;5051387;28;20163;-69
2021/07/17 05:16:35;;;;;;;28.55;16.58;;;;;;;;;;5052521;28;20127;-68
2021/07/17 05:19:04;;;;;;;28.35;18.00;;;;;;;;;;5052576;28;20045;-70
2021/07/17 05:21:32;;;;;;;27.60;17.02;;;;;;;;;;5049649;28;20042;-68
2021/07/17 05:24:02;;;;;;;32.30;20.02;;;;;;;;;;5051126;28;20053;-69
2021/07/17 05:26:30;;;;;;;32.85;20.17;;;;;;;;;;5051519;28;20077;-69
2021/07/17 05:28:59;;;;;;;33.33;20.90;;;;;;;;;;5051052;28;20613;-70
2021/07/17 05:31:27;;;;;;;32.08;21.25;;;;;;;;;;5049783;28;20581;-69
2021/07/17 05:33:55;;;;;;;32.28;20.52;;;;;;;;;;5049600;28;20128;-71
2021/07/17 05:36:24;;;;;;;29.95;20.52;;;;;;;;;;5042373;28;20041;-72
2021/07/17 05:38:52;;;;;;;36.50;21.98;;;;;;;;;;5047051;28;20037;-71
2021/07/17 05:41:22;;;;;;;31.30;20.90;;;;;;;;;;5047455;28;20539;-69
2021/07/17 05:43:50;;;;;;;32.13;21.13;;;;;;;;;;5048019;28;20136;-69
2021/07/17 05:46:18;;;;;;;34.20;20.92;;;;;;;;;;5047307;28;20171;-68
2021/07/17 05:48:47;;;;;;;31.63;21.42;;;;;;;;;;5048829;28;20127;-69
2021/07/17 05:51:15;;;;;;;36.30;23.13;;;;;;;;;;5047490;28;20123;-69
2021/07/17 05:53:43;;;;;;;36.15;22.73;;;;;;;;;;5048199;28;20167;-69
2021/07/17 05:56:12;;;;;;;34.65;21.45;;;;;;;;;;5046380;28;20147;-69
2021/07/17 05:58:41;;;;;;;40.00;22.95;;;;;;;;;;5048629;28;20504;-71
2021/07/17 06:01:10;;;;;;;33.33;21.88;;;;;;;;;;5041484;28;20052;-69
2021/07/17 06:03:40;;;;;;;34.40;22.38;;;;;;;;;;5048693;28;20048;-71
2021/07/17 06:06:09;;;;;;;36.22;23.55;;;;;;;;;;5046618;28;20065;-69
2021/07/17 06:08:37;;;;;;;34.67;23.23;;;;;;;;;;5049275;28;20068;-70
2021/07/17 06:11:06;;;;;;;35.67;22.67;;;;;;;;;;5049368;28;20056;-69
2021/07/17 06:13:34;;;;;;;37.35;22.98;;;;;;;;;;5048174;28;20052;-70
2021/07/17 06:16:04;;;;;;;41.00;24.58;;;;;;;;;;5048029;28;20049;-69
2021/07/17 06:18:33;;;;;;;41.08;23.80;;;;;;;;;;5048210;28;20188;-70
2021/07/17 06:21:01;;;;;;;42.20;24.77;;;;;;;;;;5048633;28;20067;-70
2021/07/17 06:23:29;;;;;;;38.95;22.65;;;;;;;;;;5049399;28;20059;-73
2021/07/17 06:25:59;;;;;;;41.20;24.25;;;;;;;;;;5047768;28;20087;-71
2021/07/17 06:28:27;;;;;;;33.38;23.30;;;;;;;;;;5047426;28;20367;-69
2021/07/17 06:30:55;;;;;;;36.25;23.15;;;;;;;;;;5044856;28;20059;-70
2021/07/17 06:33:25;;;;;;;40.55;23.98;;;;;;;;;;5047537;28;20052;-69
2021/07/17 06:35:54;;;;;;;38.92;24.63;;;;;;;;;;5046408;28;20120;-71
2021/07/17 06:38:22;;;;;;;43.97;24.05;;;;;;;;;;5047050;28;20493;-70
2021/07/17 06:40:50;;;;;;;35.83;23.77;;;;;;;;;;5044451;28;20128;-70
2021/07/17 06:43:19;;;;;;;33.20;22.98;;;;;;;;;;5045163;28;20425;-70
2021/07/17 06:45:47;;;;;;;39.13;24.10;;;;;;;;;;5043257;28;20049;-71
2021/07/17 06:48:15;;;;;;;37.97;24.15;;;;;;;;;;5042471;28;20051;-72
2021/07/17 06:50:45;;;;;;;36.50;23.73;;;;;;;;;;5046366;28;20578;-74
2021/07/17 06:53:13;;;;;;;40.90;24.48;;;;;;;;;;5047764;28;20124;-72
2021/07/17 06:55:41;;;;;;;37.30;24.25;;;;;;;;;;5043068;28;20563;-71
2021/07/17 06:58:10;;;;;;;42.17;25.02;;;;;;;;;;5044635;28;20116;-73
2021/07/17 07:00:38;;;;;;;43.03;24.85;;;;;;;;;;5044730;28;20139;-72
2021/07/17 07:03:07;;;;;;;40.63;23.65;;;;;;;;;;5044510;28;20048;-75
2021/07/17 07:05:36;;;;;;;37.55;22.80;;;;;;;;;;5044193;28;20056;-71
2021/07/17 07:08:06;;;;;;;40.97;24.17;;;;;;;;;;5046887;28;20091;-72
2021/07/17 07:10:34;;;;;;;42.10;23.25;;;;;;;;;;5045939;28;20059;-71
2021/07/17 07:13:09;;;;;;;44.05;25.60;;;;;;;;;;5045306;28;20048;-73
2021/07/17 07:15:37;;;;;;;37.53;24.02;;;;;;;;;;5046347;28;20107;-71
2021/07/17 07:18:06;;;;;;;37.85;23.50;;;;;;;;;;5046871;28;20045;-71
2021/07/17 07:20:34;;;;;;;40.63;25.45;;;;;;;;;;5046899;28;20046;-71
2021/07/17 07:23:03;;;;;;;40.17;25.95;;;;;;;;;;5047834;28;20072;-71
2021/07/17 07:25:33;;;;;;;45.30;25.52;;;;;;;;;;5046076;28;20045;-72
2021/07/17 07:28:01;;;;;;;42.58;26.30;;;;;;;;;;5047005;28;20358;-72
2021/07/17 07:30:29;;;;;;;45.78;26.67;;;;;;;;;;5040364;28;20076;-72
2021/07/17 07:32:58;;;;;;;43.92;26.20;;;;;;;;;;5047419;28;20161;-73
2021/07/17 07:35:27;;;;;;;43.58;25.73;;;;;;;;;;5046530;28;20076;-72
2021/07/17 07:37:55;;;;;;;45.53;26.50;;;;;;;;;;5044953;28;20071;-72
2021/07/17 07:40:24;;;;;;;48.53;26.38;;;;;;;;;;5046390;28;20152;-71
2021/07/17 07:42:54;;;;;;;46.30;26.40;;;;;;;;;;5035799;28;20459;-71
2021/07/17 07:45:23;;;;;;;42.03;24.92;;;;;;;;;;5043505;28;20500;-72
2021/07/17 07:47:52;;;;;;;43.42;25.25;;;;;;;;;;5039038;28;20103;-73
2021/07/17 07:50:21;;;;;;;42.53;26.65;;;;;;;;;;5046170;28;20120;-73
2021/07/17 07:52:50;;;;;;;47.83;25.85;;;;;;;;;;5042531;28;20063;-73
2021/07/17 07:55:18;;;;;;;46.70;24.95;;;;;;;;;;5045199;28;20567;-72
2021/07/17 07:57:48;;;;;;;45.85;25.73;;;;;;;;;;5045701;28;20076;-71
2021/07/17 08:00:19;;;;;;;40.00;23.63;;;;;;;;;;5045601;28;20130;-73
2021/07/17 08:02:51;;;;;;;;;;;;;;;;;;5050542;28;20496;-72
2021/07/17 08:05:20;;;;;;;41.13;25.25;;;;;;;;;;5026893;28;20030;-72
2021/07/17 08:07:48;;;;;;;38.65;24.70;;;;;;;;;;5026357;28;20128;-73
2021/07/17 08:10:17;;;;;;;41.00;26.02;;;;;;;;;;5021113;28;20057;-74
2021/07/17 08:12:45;;;;;;;39.97;24.58;;;;;;;;;;5028470;28;20713;-71
2021/07/17 08:15:14;;;;;;;44.38;27.13;;;;;;;;;;5029132;28;20069;-72
2021/07/17 08:17:44;;;;;;;42.00;23.90;;;;;;;;;;5021307;28;20045;-73
2021/07/17 08:20:13;;;;;;;41.53;24.05;;;;;;;;;;5029106;28;20157;-74
2021/07/17 08:22:42;;;;;;;37.85;23.67;;;;;;;;;;5030520;28;20140;-72
2021/07/17 08:25:12;;;;;;;38.65;25.60;;;;;;;;;;5010711;28;20060;-73
2021/07/17 08:27:40;;;;;;;38.85;23.48;;;;;;;;;;5029750;28;20123;-72
2021/07/17 08:30:11;;;;;;;39.67;24.13;;;;;;;;;;5028861;28;20080;-73
2021/07/17 08:32:56;;;;;;;40.33;24.75;;;;;;;;;;5027011;28;20060;-73
2021/07/17 08:35:25;;;;;;;37.35;23.90;;;;;;;;;;5029096;28;20044;-73
2021/07/17 08:37:54;;;;;;;39.92;24.55;;;;;;;;;;5030516;28;20065;-71
2021/07/17 08:40:22;;;;;;;34.97;22.63;;;;;;;;;;5027677;28;20123;-71
2021/07/17 08:42:52;;;;;;;41.20;24.23;;;;;;;;;;5026588;28;20053;-71
2021/07/17 08:45:21;;;;;;;39.22;25.55;;;;;;;;;;5026766;28;20085;-72
2021/07/17 08:47:49;;;;;;;37.40;24.45;;;;;;;;;;5029444;28;20053;-73
2021/07/17 08:50:22;;;;;;;38.60;24.10;;;;;;;;;;5013475;28;20052;-73
2021/07/17 08:52:51;;;;;;;39.50;24.00;;;;;;;;;;5028243;28;20115;-74
2021/07/17 08:55:20;;;;;;;39.45;23.63;;;;;;;;;;5028234;28;20524;-70
2021/07/17 08:57:48;;;;;;;36.03;23.52;;;;;;;;;;5029497;28;20267;-73
2021/07/17 09:00:18;;;;;;;39.00;23.85;;;;;;;;;;5026290;28;20057;-74
2021/07/17 09:02:54;;;;;;;40.50;23.33;;;;;;;;;;5026626;28;20067;-72
2021/07/17 09:05:27;;;;;;;40.15;24.05;;;;;;;;;;5028224;28;20053;-71
2021/07/17 09:07:56;;;;;;;35.05;21.73;;;;;;;;;;5023092;28;20041;-74
2021/07/17 09:10:33;;;;;;;41.70;23.63;;;;;;;;;;5021701;28;20504;-77
2021/07/17 09:13:13;;;;;;;31.85;21.85;;;;;;;;;;5027661;28;20057;-72
2021/07/17 09:15:43;;;;;;;38.00;22.50;;;;;;;;;;5027356;28;20493;-71
2021/07/17 09:18:11;;;;;;;37.20;22.23;;;;;;;;;;5030916;28;20057;-72
2021/07/17 09:20:54;;;;;;;36.45;21.92;;;;;;;;;;5028767;28;20056;-70
2021/07/17 09:23:25;;;;;;;33.85;22.20;;;;;;;;;;5029376;28;20228;-71
2021/07/17 09:25:53;;;;;;;38.10;23.67;;;;;;;;;;5027557;28;20054;-71
2021/07/17 09:28:22;;;;;;;33.35;22.38;;;;;;;;;;5029121;28;20077;-74
2021/07/17 09:30:51;;;;;;;32.15;22.50;;;;;;;;;;5028481;28;20080;-72
2021/07/17 09:33:20;;;;;;;32.33;22.40;;;;;;;;;;5029800;28;20064;-72
2021/07/17 09:35:50;;;;;;;34.47;22.13;;;;;;;;;;5028740;28;20064;-74
2021/07/17 09:38:20;;;;;;;32.60;21.23;;;;;;;;;;5029456;28;20073;-72
2021/07/17 09:40:50;;;;;;;35.75;20.92;;;;;;;;;;5023977;28;20093;-74
2021/07/17 09:43:29;;;;;;;31.27;19.20;;;;;;;;;;5029287;28;20057;-71
2021/07/17 09:45:58;;;;;;;33.97;19.88;;;;;;;;;;5019461;28;20156;-72
2021/07/17 09:48:28;;;;;;;29.08;19.23;;;;;;;;;;5029403;28;20087;-71
2021/07/17 09:51:00;;;;;;;33.22;20.40;;;;;;;;;;5029912;28;20123;-71
2021/07/17 09:53:39;;;;;;;27.33;18.85;;;;;;;;;;5027276;28;20056;-71
2021/07/17 09:56:08;;;;;;;30.05;19.30;;;;;;;;;;5027298;28;20503;-72
2021/07/17 09:58:38;;;;;;;29.98;19.20;;;;;;;;;;5028405;28;20052;-72
2021/07/17 10:01:28;;;;;;;25.77;17.17;;;;;;;;;;5028265;28;20093;-73
2021/07/17 10:04:04;;;;;;;32.88;18.30;;;;;;;;;;5016594;28;20059;-72
2021/07/17 10:06:41;;;;;;;26.50;16.88;;;;;;;;;;4977099;28;20787;-73
2021/07/17 10:09:26;;;;;;;35.15;17.73;;;;;;;;;;5028647;28;20398;-74
2021/07/17 10:11:55;;;;;;;;;;;;;;;;;;5029379;28;20045;-74
2021/07/17 10:14:25;;;;;;;26.10;16.85;;;;;;;;;;5020278;28;20447;-71
2021/07/17 10:16:55;;;;;;;27.48;17.92;;;;;;;;;;5026637;28;20084;-71
2021/07/17 10:19:24;;;;;;;25.23;16.83;;;;;;;;;;5027447;28;20041;-72
2021/07/17 10:21:55;;;;;;;27.15;17.52;;;;;;;;;;5027859;28;20052;-73
2021/07/17 10:24:24;;;;;;;28.30;18.23;;;;;;;;;;5023243;28;20832;-72
2021/07/17 10:26:54;;;;;;;27.65;17.98;;;;;;;;;;5027129;28;20168;-71
2021/07/17 10:29:23;;;;;;;27.33;17.90;;;;;;;;;;5022507;28;20141;-74
2021/07/17 10:31:52;;;;;;;32.00;18.50;;;;;;;;;;5027156;28;20245;-72
2021/07/17 10:34:21;;;;;;;26.17;17.48;;;;;;;;;;5020950;28;20064;-72
2021/07/17 10:36:51;;;;;;;28.35;17.35;;;;;;;;;;5026435;28;20050;-75
2021/07/17 10:39:22;;;;;;;28.00;17.80;;;;;;;;;;5026303;28;20349;-73
2021/07/17 10:41:51;;;;;;;24.95;17.70;;;;;;;;;;5027497;28;20148;-73
2021/07/17 10:44:34;;;;;;;26.55;17.90;;;;;;;;;;5030127;28;20072;-73
2021/07/17 10:47:06;;;;;;;33.13;17.60;;;;;;;;;;5012090;28;20045;-72
2021/07/17 10:49:36;;;;;;;29.45;18.25;;;;;;;;;;5030610;28;20076;-72
2021/07/17 10:52:05;;;;;;;30.83;18.58;;;;;;;;;;5025175;28;20133;-72
2021/07/17 10:54:36;;;;;;;30.20;17.65;;;;;;;;;;5028466;28;20051;-72
2021/07/17 10:57:07;;;;;;;30.80;19.00;;;;;;;;;;5028106;28;20046;-72
2021/07/17 10:59:42;;;;;;;30.08;18.98;;;;;;;;;;5029513;28;20136;-73
2021/07/17 11:02:11;;;;;;;36.30;19.02;;;;;;;;;;5029176;28;20092;-71
2021/07/17 11:04:45;;;;;;;34.28;18.80;;;;;;;;;;5028286;28;20049;-70
2021/07/17 11:07:42;;;;;;;33.13;17.60;;;;;;;;;;5026786;28;20049;-72
2021/07/17 11:10:13;;;;;;;33.33;19.70;;;;;;;;;;5025132;28;20080;-70
2021/07/17 11:12:57;;;;;;;28.38;18.13;;;;;;;;;;5027921;28;20132;-71
2021/07/17 11:15:33;;;;;;;31.58;18.63;;;;;;;;;;5022195;28;20600;-74
2021/07/17 11:18:18;;;;;;;31.13;19.15;;;;;;;;;;5027220;28;20417;-70
2021/07/17 11:20:47;;;;;;;30.27;17.80;;;;;;;;;;5019835;28;20045;-71
2021/07/17 11:23:17;;;;;;;30.92;18.58;;;;;;;;;;5008105;28;20073;-71
2021/07/17 11:25:56;;;;;;;31.17;19.95;;;;;;;;;;5021114;28;20397;-72
2021/07/17 11:28:43;;;;;;;33.55;20.13;;;;;;;;;;5026100;28;20049;-70
2021/07/17 11:31:26;;;;;;;39.38;19.50;;;;;;;;;;5021212;28;20053;-72
2021/07/17 11:34:09;;;;;;;37.03;19.50;;;;;;;;;;5025270;28;20099;-72
2021/07/17 11:36:38;;;;;;;29.42;17.67;;;;;;;;;;4977016;28;20129;-71
2021/07/17 11:39:07;;;;;;;28.77;17.98;;;;;;;;;;5028193;28;20080;-70
2021/07/17 11:41:37;;;;;;;33.22;18.77;;;;;;;;;;5022771;28;20432;-70
2021/07/17 11:44:07;;;;;;;28.98;18.25;;;;;;;;;;5026749;28;20057;-74
2021/07/17 11:46:35;;;;;;;30.02;17.08;;;;;;;;;;5021539;28;20049;-71
2021/07/17 11:49:05;;;;;;;28.85;18.55;;;;;;;;;;5029232;28;20401;-73
2021/07/17 11:51:34;;;;;;;36.97;19.65;;;;;;;;;;5028797;28;20548;-70
2021/07/17 11:54:03;;;;;;;32.33;18.67;;;;;;;;;;5028616;28;20523;-72
2021/07/17 11:56:32;;;;;;;33.28;18.52;;;;;;;;;;5028436;28;20041;-72
2021/07/17 11:59:13;;;;;;;30.10;18.25;;;;;;;;;;5027903;28;20050;-70
2021/07/17 12:01:57;;;;;;;33.08;18.88;;;;;;;;;;5020946;28;20497;-71
2021/07/17 12:04:29;;;;;;;33.60;18.40;;;;;;;;;;5023174;28;20049;-75
2021/07/17 12:07:01;;;;;;;32.78;18.45;;;;;;;;;;5024911;28;20692;-73
2021/07/17 12:09:33;;;;;;;33.58;19.40;;;;;;;;;;5025686;28;20124;-72
2021/07/17 12:12:15;;;;;;;35.15;19.02;;;;;;;;;;5025806;28;20060;-75
2021/07/17 12:14:45;;;;;;;32.47;19.52;;;;;;;;;;5023255;28;20129;-72
2021/07/17 12:17:13;;;;;;;31.27;18.33;;;;;;;;;;5012048;28;20141;-71
2021/07/17 12:19:42;;;;;;;29.20;18.20;;;;;;;;;;5017164;28;20049;-76
2021/07/17 12:22:10;;;;;;;31.40;18.55;;;;;;;;;;5019008;28;20084;-73
2021/07/17 12:24:38;;;;;;;26.67;17.85;;;;;;;;;;5026441;28;20056;-73
2021/07/17 12:27:07;;;;;;;33.58;16.90;;;;;;;;;;5026519;28;20451;-69
2021/07/17 12:29:35;;;;;;;28.02;16.80;;;;;;;;;;5026667;28;20045;-72
2021/07/17 12:32:05;;;;;;;30.85;17.58;;;;;;;;;;5025971;28;20140;-71
2021/07/17 12:34:34;;;;;;;27.50;17.33;;;;;;;;;;5021797;28;20339;-73
2021/07/17 12:37:02;;;;;;;29.27;16.65;;;;;;;;;;5021084;28;20054;-75
2021/07/17 12:39:31;;;;;;;25.27;16.67;;;;;;;;;;5024544;28;20123;-73
2021/07/17 12:42:00;;;;;;;42.53;19.60;;;;;;;;;;5024604;28;20056;-73
2021/07/17 12:44:29;;;;;;;29.67;16.67;;;;;;;;;;5022845;28;20132;-72
2021/07/17 12:47:05;;;;;;;28.70;16.38;;;;;;;;;;5026363;28;20065;-73
2021/07/17 12:49:35;;;;;;;26.17;16.30;;;;;;;;;;5028939;28;20132;-78
2021/07/17 12:52:03;;;;;;;28.45;15.82;;;;;;;;;;5023325;28;20663;-75
2021/07/17 12:54:31;;;;;;;26.52;15.65;;;;;;;;;;5028389;28;20385;-73
2021/07/17 12:57:01;;;;;;;27.23;17.02;;;;;;;;;;5030043;28;20045;-73
2021/07/17 12:59:31;;;;;;;22.23;15.45;;;;;;;;;;5026468;28;20428;-73
2021/07/17 13:02:00;;;;;;;26.73;15.75;;;;;;;;;;5029638;28;20061;-75
2021/07/17 13:04:30;;;;;;;21.55;14.93;;;;;;;;;;5027996;28;20106;-75
2021/07/17 13:07:00;;;;;;;22.17;15.35;;;;;;;;;;5026476;28;20053;-75
2021/07/17 13:09:30;;;;;;;22.38;15.43;;;;;;;;;;5030862;28;20045;-74
2021/07/17 13:11:58;;;;;;;23.00;15.23;;;;;;;;;;5030747;28;20144;-76
2021/07/17 13:14:28;;;;;;;28.73;13.65;;;;;;;;;;5020554;28;20048;-74
2021/07/17 13:16:57;;;;;;;21.58;14.00;;;;;;;;;;5029483;28;20053;-73
2021/07/17 13:19:26;;;;;;;29.35;14.70;;;;;;;;;;5031575;28;21327;-71
2021/07/17 13:22:03;;;;;;;26.48;13.75;;;;;;;;;;5031506;28;20037;-72
2021/07/17 13:24:52;;;;;;;21.98;13.85;;;;;;;;;;5031223;28;20052;-71
2021/07/17 13:27:21;;;;;;;19.50;12.77;;;;;;;;;;5031598;28;20077;-72
2021/07/17 13:29:50;;;;;;;21.45;14.18;;;;;;;;;;5031108;28;20073;-72
2021/07/17 13:32:27;;;;;;;21.33;12.40;;;;;;;;;;5031556;28;20041;-70
2021/07/17 13:34:57;;;;;;;17.77;12.85;;;;;;;;;;5030857;28;20132;-71
2021/07/17 13:37:26;;;;;;;19.58;12.43;;;;;;;;;;5028369;28;20140;-75
2021/07/17 13:39:56;;;;;;;20.33;12.20;;;;;;;;;;5031048;28;20136;-71
2021/07/17 13:42:25;;;;;;;22.40;12.85;;;;;;;;;;5032866;28;20491;-71
2021/07/17 13:45:02;;;;;;;21.75;13.35;;;;;;;;;;5032974;28;20095;-71
2021/07/17 13:47:35;;;;;;;18.10;12.93;;;;;;;;;;5031999;28;20092;-74
2021/07/17 13:50:04;;;;;;;22.08;13.60;;;;;;;;;;5032775;28;20041;-69
2021/07/17 13:52:35;;;;;;;20.85;13.75;;;;;;;;;;5031497;28;20120;-71
2021/07/17 13:55:05;;;;;;;16.90;12.43;;;;;;;;;;5023344;28;20041;-73
2021/07/17 13:57:38;;;;;;;20.27;13.02;;;;;;;;;;5031214;28;20140;-71
2021/07/17 14:00:08;;;;;;;16.83;12.25;;;;;;;;;;5032784;28;20481;-71
2021/07/17 14:02:53;;;;;;;18.55;12.68;;;;;;;;;;5021003;28;20316;-72
2021/07/17 14:05:22;;;;;;;17.65;12.30;;;;;;;;;;5016450;28;20057;-72
2021/07/17 14:07:52;;;;;;;17.95;12.90;;;;;;;;;;5027274;28;20152;-72
2021/07/17 14:10:21;;;;;;;19.25;12.73;;;;;;;;;;5025096;28;20069;-74
2021/07/17 14:12:50;;;;;;;20.23;12.07;;;;;;;;;;5026952;28;20045;-75
2021/07/17 14:15:18;;;;;;;20.35;12.43;;;;;;;;;;5029198;28;20077;-72
2021/07/17 14:17:46;;;;;;;16.45;12.05;;;;;;;;;;5030957;28;20133;-75
2021/07/17 14:20:15;;;;;;;17.42;11.48;;;;;;;;;;5029298;28;20136;-70
2021/07/17 14:22:43;;;;;;;17.40;12.25;;;;;;;;;;5029772;28;20124;-70
2021/07/17 14:25:13;;;;;;;16.10;10.98;;;;;;;;;;5029257;28;20088;-72
2021/07/17 14:27:42;;;;;;;16.35;11.35;;;;;;;;;;5026787;28;20088;-70
2021/07/17 14:30:11;;;;;;;15.65;11.18;;;;;;;;;;5027682;28;20081;-71
2021/07/17 14:32:55;;;;;;;15.70;10.75;;;;;;;;;;5018477;28;20128;-71
2021/07/17 14:35:24;;;;;;;20.25;11.93;;;;;;;;;;5030349;28;20077;-70
2021/07/17 14:37:53;;;;;;;18.08;12.00;;;;;;;;;;5030755;28;20085;-70
2021/07/17 14:40:23;;;;;;;17.50;11.82;;;;;;;;;;5029322;28;20053;-71